Egg Harbor City, New Jersey
Current Conditions -  °F | °C
As of 2:54 AM on Thursday 23 Oct 2014 (Local Time) from KACY Reporting Station
Light Rain Light Rain  
Wind Chill: 50°   Ceiling: 1300
Heat Index: 50°   Visibility: 6mi
Dew Point: 49°   Wind: 16mph
Humidity: 96%   Direction: 330°NNW
Pressure: 29.69"   Gusts: 26mph
Location:  39.53°N, 74.65°W
Report Text: KACY 230654Z 33014G23KT 6SM -RA BR SCT010 BKN013 OVC018 10/09 A2969 RMK AO2 RAB0558 SLP054 P0001 T01000094
Loading
Personal Weather Stations






























Interactive Weather Map
Tropical Storm Tracking
New forecast layout! Learn more

10-Day Weather Forecast

Advertisements
Track Severe Weather on mobile